sensor_id;sensor_type;location;lat;lon;timestamp;P1;durP1;ratioP1;P2;durP2;ratioP2
41061;SDS011;26812;42.662;23.352;2023-08-30T00:00:54;2.70;;;2.60;;
41061;SDS011;26812;42.662;23.352;2023-08-30T00:03:19;3.17;;;3.08;;
41061;SDS011;26812;42.662;23.352;2023-08-30T00:05:45;1.80;;;1.73;;
41061;SDS011;26812;42.662;23.352;2023-08-30T00:08:10;2.30;;;2.10;;
41061;SDS011;26812;42.662;23.352;2023-08-30T00:10:36;2.00;;;1.85;;
41061;SDS011;26812;42.662;23.352;2023-08-30T00:13:03;3.70;;;2.85;;
41061;SDS011;26812;42.662;23.352;2023-08-30T00:15:28;3.70;;;3.45;;
41061;SDS011;26812;42.662;23.352;2023-08-30T00:17:54;1.92;;;1.83;;
41061;SDS011;26812;42.662;23.352;2023-08-30T00:20:20;2.70;;;2.50;;
41061;SDS011;26812;42.662;23.352;2023-08-30T00:22:45;2.53;;;2.42;;
41061;SDS011;26812;42.662;23.352;2023-08-30T00:25:12;1.70;;;1.67;;
41061;SDS011;26812;42.662;23.352;2023-08-30T00:27:37;2.25;;;2.15;;
41061;SDS011;26812;42.662;23.352;2023-08-30T00:30:03;1.90;;;1.83;;
41061;SDS011;26812;42.662;23.352;2023-08-30T00:32:29;4.15;;;1.85;;
41061;SDS011;26812;42.662;23.352;2023-08-30T00:34:54;2.28;;;2.17;;
41061;SDS011;26812;42.662;23.352;2023-08-30T00:37:19;1.27;;;1.27;;
41061;SDS011;26812;42.662;23.352;2023-08-30T00:39:45;1.23;;;1.23;;
41061;SDS011;26812;42.662;23.352;2023-08-30T00:42:10;1.70;;;1.70;;
41061;SDS011;26812;42.662;23.352;2023-08-30T00:44:35;1.33;;;1.33;;
41061;SDS011;26812;42.662;23.352;2023-08-30T00:47:01;1.13;;;1.13;;
41061;SDS011;26812;42.662;23.352;2023-08-30T00:49:28;1.50;;;1.50;;
41061;SDS011;26812;42.662;23.352;2023-08-30T00:52:01;1.48;;;1.48;;
41061;SDS011;26812;42.662;23.352;2023-08-30T00:54:30;1.40;;;1.40;;
41061;SDS011;26812;42.662;23.352;2023-08-30T00:56:56;2.10;;;2.00;;
41061;SDS011;26812;42.662;23.352;2023-08-30T00:59:22;3.15;;;2.58;;
41061;SDS011;26812;42.662;23.352;2023-08-30T01:01:48;1.75;;;1.75;;
41061;SDS011;26812;42.662;23.352;2023-08-30T01:04:14;2.65;;;2.55;;
41061;SDS011;26812;42.662;23.352;2023-08-30T01:06:39;1.60;;;1.55;;
41061;SDS011;26812;42.662;23.352;2023-08-30T01:09:05;2.03;;;1.92;;
41061;SDS011;26812;42.662;23.352;2023-08-30T01:14:21;1.52;;;1.52;;
41061;SDS011;26812;42.662;23.352;2023-08-30T01:16:50;1.70;;;1.65;;
41061;SDS011;26812;42.662;23.352;2023-08-30T01:22:04;2.05;;;1.90;;
41061;SDS011;26812;42.662;23.352;2023-08-30T01:24:41;2.00;;;1.90;;
41061;SDS011;26812;42.662;23.352;2023-08-30T01:27:11;1.05;;;1.05;;
41061;SDS011;26812;42.662;23.352;2023-08-30T01:29:38;1.05;;;1.05;;
41061;SDS011;26812;42.662;23.352;2023-08-30T01:32:08;1.30;;;1.30;;
41061;SDS011;26812;42.662;23.352;2023-08-30T01:34:35;1.10;;;1.00;;
41061;SDS011;26812;42.662;23.352;2023-08-30T01:37:02;1.50;;;1.50;;
41061;SDS011;26812;42.662;23.352;2023-08-30T01:39:30;1.83;;;1.77;;
41061;SDS011;26812;42.662;23.352;2023-08-30T01:41:56;1.42;;;1.42;;
41061;SDS011;26812;42.662;23.352;2023-08-30T01:44:26;1.50;;;1.50;;
41061;SDS011;26812;42.662;23.352;2023-08-30T01:46:53;1.52;;;1.48;;
41061;SDS011;26812;42.662;23.352;2023-08-30T01:49:20;1.67;;;1.65;;
41061;SDS011;26812;42.662;23.352;2023-08-30T01:51:47;1.23;;;1.23;;
41061;SDS011;26812;42.662;23.352;2023-08-30T01:54:14;1.60;;;1.60;;
41061;SDS011;26812;42.662;23.352;2023-08-30T01:56:43;1.20;;;1.20;;
41061;SDS011;26812;42.662;23.352;2023-08-30T01:59:09;2.10;;;2.00;;
41061;SDS011;26812;42.662;23.352;2023-08-30T02:01:34;1.85;;;1.75;;
41061;SDS011;26812;42.662;23.352;2023-08-30T02:04:00;1.30;;;1.30;;
41061;SDS011;26812;42.662;23.352;2023-08-30T02:06:33;1.65;;;1.65;;
41061;SDS011;26812;42.662;23.352;2023-08-30T02:09:21;1.45;;;1.35;;
41061;SDS011;26812;42.662;23.352;2023-08-30T02:11:51;1.15;;;1.15;;
41061;SDS011;26812;42.662;23.352;2023-08-30T02:14:18;2.33;;;2.22;;
41061;SDS011;26812;42.662;23.352;2023-08-30T02:16:45;1.25;;;1.25;;
41061;SDS011;26812;42.662;23.352;2023-08-30T02:19:12;2.05;;;1.95;;
41061;SDS011;26812;42.662;23.352;2023-08-30T02:21:47;4.97;;;3.58;;
41061;SDS011;26812;42.662;23.352;2023-08-30T02:24:13;1.60;;;1.60;;
41061;SDS011;26812;42.662;23.352;2023-08-30T02:26:39;1.65;;;1.25;;
41061;SDS011;26812;42.662;23.352;2023-08-30T02:29:04;1.67;;;1.67;;
41061;SDS011;26812;42.662;23.352;2023-08-30T02:31:30;1.17;;;1.17;;
41061;SDS011;26812;42.662;23.352;2023-08-30T02:33:55;1.17;;;1.13;;
41061;SDS011;26812;42.662;23.352;2023-08-30T02:36:21;1.33;;;1.33;;
41061;SDS011;26812;42.662;23.352;2023-08-30T02:38:46;1.63;;;1.63;;
41061;SDS011;26812;42.662;23.352;2023-08-30T02:41:11;1.65;;;1.55;;
41061;SDS011;26812;42.662;23.352;2023-08-30T02:43:37;1.33;;;1.33;;
41061;SDS011;26812;42.662;23.352;2023-08-30T02:46:02;1.70;;;1.67;;
41061;SDS011;26812;42.662;23.352;2023-08-30T02:48:29;1.15;;;1.15;;
41061;SDS011;26812;42.662;23.352;2023-08-30T02:50:54;1.50;;;1.50;;
41061;SDS011;26812;42.662;23.352;2023-08-30T02:53:20;1.40;;;1.40;;
41061;SDS011;26812;42.662;23.352;2023-08-30T02:55:46;1.75;;;1.67;;
41061;SDS011;26812;42.662;23.352;2023-08-30T02:58:13;1.60;;;1.60;;
41061;SDS011;26812;42.662;23.352;2023-08-30T03:00:38;1.80;;;1.73;;
41061;SDS011;26812;42.662;23.352;2023-08-30T03:03:03;2.70;;;1.77;;
41061;SDS011;26812;42.662;23.352;2023-08-30T03:05:29;1.75;;;1.75;;
41061;SDS011;26812;42.662;23.352;2023-08-30T03:07:54;2.20;;;2.08;;
41061;SDS011;26812;42.662;23.352;2023-08-30T03:10:20;1.80;;;1.80;;
41061;SDS011;26812;42.662;23.352;2023-08-30T03:12:45;1.17;;;1.17;;
41061;SDS011;26812;42.662;23.352;2023-08-30T03:15:10;1.58;;;1.58;;
41061;SDS011;26812;42.662;23.352;2023-08-30T03:17:36;1.35;;;1.35;;
41061;SDS011;26812;42.662;23.352;2023-08-30T03:20:02;1.88;;;1.85;;
41061;SDS011;26812;42.662;23.352;2023-08-30T03:22:28;1.92;;;1.80;;
41061;SDS011;26812;42.662;23.352;2023-08-30T03:24:55;1.52;;;1.52;;
41061;SDS011;26812;42.662;23.352;2023-08-30T03:27:21;1.33;;;1.33;;
41061;SDS011;26812;42.662;23.352;2023-08-30T03:29:46;2.08;;;2.03;;
41061;SDS011;26812;42.662;23.352;2023-08-30T03:32:14;1.75;;;1.65;;
41061;SDS011;26812;42.662;23.352;2023-08-30T03:34:43;4.03;;;3.08;;
41061;SDS011;26812;42.662;23.352;2023-08-30T03:37:09;3.38;;;1.70;;
41061;SDS011;26812;42.662;23.352;2023-08-30T03:39:35;1.95;;;1.95;;
41061;SDS011;26812;42.662;23.352;2023-08-30T03:42:00;1.80;;;1.80;;
41061;SDS011;26812;42.662;23.352;2023-08-30T03:44:25;1.70;;;1.70;;
41061;SDS011;26812;42.662;23.352;2023-08-30T03:46:51;1.88;;;1.88;;
41061;SDS011;26812;42.662;23.352;2023-08-30T03:49:23;3.80;;;3.65;;
41061;SDS011;26812;42.662;23.352;2023-08-30T03:51:48;2.15;;;2.05;;
41061;SDS011;26812;42.662;23.352;2023-08-30T03:54:14;1.90;;;1.80;;
41061;SDS011;26812;42.662;23.352;2023-08-30T03:56:42;2.92;;;2.70;;
41061;SDS011;26812;42.662;23.352;2023-08-30T03:59:07;0.98;;;0.98;;
41061;SDS011;26812;42.662;23.352;2023-08-30T04:01:33;1.60;;;1.50;;
41061;SDS011;26812;42.662;23.352;2023-08-30T04:03:58;1.52;;;1.42;;
41061;SDS011;26812;42.662;23.352;2023-08-30T04:06:23;1.60;;;1.60;;
41061;SDS011;26812;42.662;23.352;2023-08-30T04:08:49;1.38;;;1.35;;
41061;SDS011;26812;42.662;23.352;2023-08-30T04:11:14;2.30;;;2.20;;
41061;SDS011;26812;42.662;23.352;2023-08-30T04:13:40;0.95;;;0.95;;
41061;SDS011;26812;42.662;23.352;2023-08-30T04:16:05;0.98;;;0.98;;
41061;SDS011;26812;42.662;23.352;2023-08-30T04:18:30;1.73;;;1.65;;
41061;SDS011;26812;42.662;23.352;2023-08-30T04:20:56;3.25;;;2.95;;
41061;SDS011;26812;42.662;23.352;2023-08-30T04:23:23;1.40;;;1.40;;
41061;SDS011;26812;42.662;23.352;2023-08-30T04:25:48;4.50;;;2.10;;
41061;SDS011;26812;42.662;23.352;2023-08-30T04:28:13;2.45;;;2.35;;
41061;SDS011;26812;42.662;23.352;2023-08-30T04:30:39;1.33;;;1.33;;
41061;SDS011;26812;42.662;23.352;2023-08-30T04:33:05;1.30;;;1.30;;
41061;SDS011;26812;42.662;23.352;2023-08-30T04:35:30;2.55;;;2.38;;
41061;SDS011;26812;42.662;23.352;2023-08-30T04:37:57;1.35;;;1.35;;
41061;SDS011;26812;42.662;23.352;2023-08-30T04:40:23;2.83;;;1.80;;
41061;SDS011;26812;42.662;23.352;2023-08-30T04:42:49;1.58;;;1.48;;
41061;SDS011;26812;42.662;23.352;2023-08-30T04:45:14;1.80;;;1.80;;
41061;SDS011;26812;42.662;23.352;2023-08-30T04:47:40;2.83;;;2.47;;
41061;SDS011;26812;42.662;23.352;2023-08-30T04:50:08;2.33;;;1.98;;
41061;SDS011;26812;42.662;23.352;2023-08-30T04:52:33;3.15;;;2.95;;
41061;SDS011;26812;42.662;23.352;2023-08-30T04:54:59;3.47;;;3.22;;
41061;SDS011;26812;42.662;23.352;2023-08-30T04:57:24;3.08;;;2.88;;
41061;SDS011;26812;42.662;23.352;2023-08-30T04:59:49;1.60;;;1.55;;
41061;SDS011;26812;42.662;23.352;2023-08-30T05:02:15;1.65;;;1.58;;
41061;SDS011;26812;42.662;23.352;2023-08-30T05:04:40;1.85;;;1.85;;
41061;SDS011;26812;42.662;23.352;2023-08-30T05:07:06;1.15;;;1.15;;
41061;SDS011;26812;42.662;23.352;2023-08-30T05:09:31;1.15;;;1.15;;
41061;SDS011;26812;42.662;23.352;2023-08-30T05:11:57;1.35;;;1.35;;
41061;SDS011;26812;42.662;23.352;2023-08-30T05:14:23;2.33;;;2.15;;
41061;SDS011;26812;42.662;23.352;2023-08-30T05:16:48;2.28;;;2.17;;
41061;SDS011;26812;42.662;23.352;2023-08-30T05:19:14;2.30;;;2.10;;
41061;SDS011;26812;42.662;23.352;2023-08-30T05:21:41;1.85;;;1.75;;
41061;SDS011;26812;42.662;23.352;2023-08-30T05:24:07;1.52;;;1.52;;
41061;SDS011;26812;42.662;23.352;2023-08-30T05:26:33;2.30;;;2.20;;
41061;SDS011;26812;42.662;23.352;2023-08-30T05:28:58;1.33;;;1.33;;
41061;SDS011;26812;42.662;23.352;2023-08-30T05:31:23;1.30;;;1.30;;
41061;SDS011;26812;42.662;23.352;2023-08-30T05:33:49;1.92;;;1.90;;
41061;SDS011;26812;42.662;23.352;2023-08-30T05:36:15;1.92;;;1.83;;
41061;SDS011;26812;42.662;23.352;2023-08-30T05:38:40;1.30;;;1.30;;
41061;SDS011;26812;42.662;23.352;2023-08-30T05:41:06;1.25;;;1.25;;
41061;SDS011;26812;42.662;23.352;2023-08-30T05:43:32;2.17;;;2.08;;
41061;SDS011;26812;42.662;23.352;2023-08-30T05:45:57;1.15;;;1.15;;
41061;SDS011;26812;42.662;23.352;2023-08-30T05:48:27;1.95;;;1.85;;
41061;SDS011;26812;42.662;23.352;2023-08-30T05:50:53;1.80;;;1.80;;
41061;SDS011;26812;42.662;23.352;2023-08-30T05:53:18;6.57;;;2.30;;
41061;SDS011;26812;42.662;23.352;2023-08-30T05:55:43;2.30;;;1.45;;
41061;SDS011;26812;42.662;23.352;2023-08-30T05:58:09;0.82;;;0.82;;
41061;SDS011;26812;42.662;23.352;2023-08-30T06:00:34;0.88;;;0.88;;
41061;SDS011;26812;42.662;23.352;2023-08-30T06:02:59;0.88;;;0.88;;
41061;SDS011;26812;42.662;23.352;2023-08-30T06:05:25;4.68;;;1.85;;
41061;SDS011;26812;42.662;23.352;2023-08-30T06:07:51;0.82;;;0.82;;
41061;SDS011;26812;42.662;23.352;2023-08-30T06:10:17;0.75;;;0.75;;
41061;SDS011;26812;42.662;23.352;2023-08-30T06:12:43;1.73;;;1.40;;
41061;SDS011;26812;42.662;23.352;2023-08-30T06:15:08;0.70;;;0.70;;
41061;SDS011;26812;42.662;23.352;2023-08-30T06:17:34;2.25;;;1.70;;
41061;SDS011;26812;42.662;23.352;2023-08-30T06:19:59;1.00;;;0.93;;
41061;SDS011;26812;42.662;23.352;2023-08-30T06:22:24;1.65;;;1.10;;
41061;SDS011;26812;42.662;23.352;2023-08-30T06:24:50;2.97;;;1.77;;
41061;SDS011;26812;42.662;23.352;2023-08-30T06:27:15;5.35;;;1.65;;
41061;SDS011;26812;42.662;23.352;2023-08-30T06:29:41;1.20;;;1.05;;
41061;SDS011;26812;42.662;23.352;2023-08-30T06:32:06;0.88;;;0.88;;
41061;SDS011;26812;42.662;23.352;2023-08-30T06:34:32;1.02;;;1.02;;
41061;SDS011;26812;42.662;23.352;2023-08-30T06:36:57;0.88;;;0.88;;
41061;SDS011;26812;42.662;23.352;2023-08-30T06:39:23;0.80;;;0.80;;
41061;SDS011;26812;42.662;23.352;2023-08-30T06:41:48;1.80;;;1.42;;
41061;SDS011;26812;42.662;23.352;2023-08-30T06:44:13;1.05;;;0.95;;
41061;SDS011;26812;42.662;23.352;2023-08-30T06:46:39;1.02;;;1.02;;
41061;SDS011;26812;42.662;23.352;2023-08-30T06:49:04;0.73;;;0.73;;
41061;SDS011;26812;42.662;23.352;2023-08-30T06:51:30;0.93;;;0.93;;
41061;SDS011;26812;42.662;23.352;2023-08-30T06:53:55;1.10;;;1.10;;
41061;SDS011;26812;42.662;23.352;2023-08-30T06:56:25;1.50;;;1.40;;
41061;SDS011;26812;42.662;23.352;2023-08-30T06:58:51;1.70;;;1.60;;
41061;SDS011;26812;42.662;23.352;2023-08-30T07:01:16;1.70;;;1.05;;
41061;SDS011;26812;42.662;23.352;2023-08-30T07:03:41;1.23;;;1.23;;
41061;SDS011;26812;42.662;23.352;2023-08-30T07:06:08;1.50;;;1.30;;
41061;SDS011;26812;42.662;23.352;2023-08-30T07:08:34;0.90;;;0.90;;
41061;SDS011;26812;42.662;23.352;2023-08-30T07:10:59;2.25;;;1.73;;
41061;SDS011;26812;42.662;23.352;2023-08-30T07:13:40;0.95;;;0.93;;
41061;SDS011;26812;42.662;23.352;2023-08-30T07:16:05;1.20;;;1.10;;
41061;SDS011;26812;42.662;23.352;2023-08-30T07:18:30;2.60;;;0.90;;
41061;SDS011;26812;42.662;23.352;2023-08-30T07:20:56;0.85;;;0.85;;
41061;SDS011;26812;42.662;23.352;2023-08-30T07:23:21;1.60;;;1.50;;
41061;SDS011;26812;42.662;23.352;2023-08-30T07:25:47;1.00;;;1.00;;
41061;SDS011;26812;42.662;23.352;2023-08-30T07:28:12;0.70;;;0.70;;
41061;SDS011;26812;42.662;23.352;2023-08-30T07:30:37;4.57;;;2.53;;
41061;SDS011;26812;42.662;23.352;2023-08-30T07:33:03;0.50;;;0.50;;
41061;SDS011;26812;42.662;23.352;2023-08-30T07:35:29;0.65;;;0.65;;
41061;SDS011;26812;42.662;23.352;2023-08-30T07:37:55;1.85;;;1.48;;
41061;SDS011;26812;42.662;23.352;2023-08-30T07:40:21;1.55;;;1.55;;
41061;SDS011;26812;42.662;23.352;2023-08-30T07:42:51;1.05;;;1.05;;
41061;SDS011;26812;42.662;23.352;2023-08-30T07:45:16;0.60;;;0.60;;
41061;SDS011;26812;42.662;23.352;2023-08-30T07:47:42;0.90;;;0.90;;
41061;SDS011;26812;42.662;23.352;2023-08-30T07:50:14;0.70;;;0.70;;
41061;SDS011;26812;42.662;23.352;2023-08-30T07:52:39;1.17;;;0.80;;
41061;SDS011;26812;42.662;23.352;2023-08-30T07:55:04;1.45;;;1.35;;
41061;SDS011;26812;42.662;23.352;2023-08-30T07:57:30;1.27;;;1.23;;
41061;SDS011;26812;42.662;23.352;2023-08-30T07:59:55;0.77;;;0.77;;
41061;SDS011;26812;42.662;23.352;2023-08-30T08:02:21;1.10;;;1.10;;
41061;SDS011;26812;42.662;23.352;2023-08-30T08:04:46;0.47;;;0.47;;
41061;SDS011;26812;42.662;23.352;2023-08-30T08:07:11;1.45;;;1.45;;
41061;SDS011;26812;42.662;23.352;2023-08-30T08:09:37;1.30;;;1.20;;
41061;SDS011;26812;42.662;23.352;2023-08-30T08:12:03;0.82;;;0.82;;
41061;SDS011;26812;42.662;23.352;2023-08-30T08:14:29;1.05;;;1.05;;
41061;SDS011;26812;42.662;23.352;2023-08-30T08:16:54;0.80;;;0.80;;
41061;SDS011;26812;42.662;23.352;2023-08-30T08:19:20;2.20;;;2.10;;
41061;SDS011;26812;42.662;23.352;2023-08-30T08:21:46;0.60;;;0.60;;
41061;SDS011;26812;42.662;23.352;2023-08-30T08:24:11;0.50;;;0.50;;
41061;SDS011;26812;42.662;23.352;2023-08-30T08:26:37;0.65;;;0.65;;
41061;SDS011;26812;42.662;23.352;2023-08-30T08:29:02;1.73;;;1.55;;
41061;SDS011;26812;42.662;23.352;2023-08-30T08:31:28;1.20;;;1.20;;
41061;SDS011;26812;42.662;23.352;2023-08-30T08:34:10;1.00;;;0.98;;
41061;SDS011;26812;42.662;23.352;2023-08-30T08:36:37;2.53;;;1.67;;
41061;SDS011;26812;42.662;23.352;2023-08-30T08:39:03;1.33;;;1.25;;
41061;SDS011;26812;42.662;23.352;2023-08-30T08:41:31;0.50;;;0.50;;
41061;SDS011;26812;42.662;23.352;2023-08-30T08:44:00;1.52;;;1.38;;
41061;SDS011;26812;42.662;23.352;2023-08-30T08:46:26;0.70;;;0.70;;
41061;SDS011;26812;42.662;23.352;2023-08-30T08:48:54;0.57;;;0.57;;
41061;SDS011;26812;42.662;23.352;2023-08-30T08:51:22;0.73;;;0.73;;
41061;SDS011;26812;42.662;23.352;2023-08-30T08:53:49;1.75;;;1.65;;
41061;SDS011;26812;42.662;23.352;2023-08-30T08:56:15;1.48;;;1.38;;
41061;SDS011;26812;42.662;23.352;2023-08-30T08:58:41;0.63;;;0.63;;
41061;SDS011;26812;42.662;23.352;2023-08-30T09:01:08;3.83;;;0.98;;
41061;SDS011;26812;42.662;23.352;2023-08-30T09:03:35;0.90;;;0.90;;
41061;SDS011;26812;42.662;23.352;2023-08-30T09:06:01;302.02;;;46.13;;
41061;SDS011;26812;42.662;23.352;2023-08-30T09:08:28;3.72;;;1.13;;
41061;SDS011;26812;42.662;23.352;2023-08-30T09:10:53;296.92;;;87.47;;
41061;SDS011;26812;42.662;23.352;2023-08-30T09:13:19;132.55;;;48.72;;
41061;SDS011;26812;42.662;23.352;2023-08-30T09:15:46;0.43;;;0.43;;
41061;SDS011;26812;42.662;23.352;2023-08-30T09:18:17;0.75;;;0.75;;
41061;SDS011;26812;42.662;23.352;2023-08-30T09:20:43;0.60;;;0.60;;
41061;SDS011;26812;42.662;23.352;2023-08-30T09:23:16;0.60;;;0.57;;
41061;SDS011;26812;42.662;23.352;2023-08-30T09:25:54;690.03;;;116.43;;
41061;SDS011;26812;42.662;23.352;2023-08-30T09:28:19;0.82;;;0.82;;
41061;SDS011;26812;42.662;23.352;2023-08-30T09:30:54;0.50;;;0.50;;
41061;SDS011;26812;42.662;23.352;2023-08-30T09:33:22;0.47;;;0.47;;
41061;SDS011;26812;42.662;23.352;2023-08-30T09:35:49;1.58;;;1.48;;
41061;SDS011;26812;42.662;23.352;2023-08-30T09:38:20;12.10;;;11.80;;
41061;SDS011;26812;42.662;23.352;2023-08-30T09:40:47;2.30;;;2.30;;
41061;SDS011;26812;42.662;23.352;2023-08-30T09:43:12;2.20;;;2.20;;
41061;SDS011;26812;42.662;23.352;2023-08-30T09:45:38;479.05;;;87.47;;
41061;SDS011;26812;42.662;23.352;2023-08-30T09:48:04;2.92;;;1.25;;
41061;SDS011;26812;42.662;23.352;2023-08-30T09:50:33;6.00;;;2.33;;
41061;SDS011;26812;42.662;23.352;2023-08-30T09:53:01;1.00;;;1.00;;
41061;SDS011;26812;42.662;23.352;2023-08-30T09:55:36;1.58;;;1.58;;
41061;SDS011;26812;42.662;23.352;2023-08-30T09:58:03;2.15;;;1.83;;
41061;SDS011;26812;42.662;23.352;2023-08-30T10:00:29;1.08;;;1.08;;
41061;SDS011;26812;42.662;23.352;2023-08-30T10:02:59;4.70;;;4.55;;
41061;SDS011;26812;42.662;23.352;2023-08-30T10:05:25;3.20;;;3.10;;
41061;SDS011;26812;42.662;23.352;2023-08-30T10:07:52;6.55;;;6.35;;
41061;SDS011;26812;42.662;23.352;2023-08-30T10:10:25;4.00;;;3.90;;
41061;SDS011;26812;42.662;23.352;2023-08-30T10:12:50;213.05;;;30.33;;
41061;SDS011;26812;42.662;23.352;2023-08-30T10:15:17;4.80;;;4.70;;
41061;SDS011;26812;42.662;23.352;2023-08-30T10:17:46;4.60;;;4.50;;
41061;SDS011;26812;42.662;23.352;2023-08-30T10:20:15;356.90;;;50.60;;
41061;SDS011;26812;42.662;23.352;2023-08-30T10:22:41;3.63;;;3.53;;
41061;SDS011;26812;42.662;23.352;2023-08-30T10:25:10;4.82;;;4.63;;
41061;SDS011;26812;42.662;23.352;2023-08-30T10:27:42;289.10;;;38.20;;
41061;SDS011;26812;42.662;23.352;2023-08-30T10:30:11;3.67;;;3.58;;
41061;SDS011;26812;42.662;23.352;2023-08-30T10:32:41;3.70;;;3.60;;
41061;SDS011;26812;42.662;23.352;2023-08-30T10:35:10;3.30;;;3.20;;
41061;SDS011;26812;42.662;23.352;2023-08-30T10:37:37;4.55;;;4.35;;
41061;SDS011;26812;42.662;23.352;2023-08-30T10:40:02;3.28;;;3.17;;
41061;SDS011;26812;42.662;23.352;2023-08-30T10:42:28;3.38;;;3.28;;
41061;SDS011;26812;42.662;23.352;2023-08-30T10:44:58;3.30;;;3.20;;
41061;SDS011;26812;42.662;23.352;2023-08-30T10:47:26;3.38;;;3.28;;
41061;SDS011;26812;42.662;23.352;2023-08-30T10:49:56;3.40;;;3.30;;
41061;SDS011;26812;42.662;23.352;2023-08-30T10:52:23;3.25;;;3.15;;
41061;SDS011;26812;42.662;23.352;2023-08-30T10:54:49;2.22;;;2.22;;
41061;SDS011;26812;42.662;23.352;2023-08-30T10:57:19;3.95;;;3.75;;
41061;SDS011;26812;42.662;23.352;2023-08-30T11:02:35;3.42;;;3.33;;
41061;SDS011;26812;42.662;23.352;2023-08-30T11:05:05;3.70;;;3.60;;
41061;SDS011;26812;42.662;23.352;2023-08-30T11:07:32;3.92;;;3.80;;
41061;SDS011;26812;42.662;23.352;2023-08-30T11:09:57;3.95;;;3.85;;
41061;SDS011;26812;42.662;23.352;2023-08-30T11:12:23;4.40;;;4.13;;
41061;SDS011;26812;42.662;23.352;2023-08-30T11:14:51;3.55;;;3.45;;
41061;SDS011;26812;42.662;23.352;2023-08-30T11:17:17;4.75;;;4.55;;
41061;SDS011;26812;42.662;23.352;2023-08-30T11:19:43;4.55;;;4.45;;
41061;SDS011;26812;42.662;23.352;2023-08-30T11:22:09;4.28;;;4.07;;
41061;SDS011;26812;42.662;23.352;2023-08-30T11:24:34;4.40;;;4.28;;
41061;SDS011;26812;42.662;23.352;2023-08-30T11:27:00;3.92;;;3.83;;
41061;SDS011;26812;42.662;23.352;2023-08-30T11:29:29;3.75;;;3.65;;
41061;SDS011;26812;42.662;23.352;2023-08-30T11:31:54;5.32;;;5.03;;
41061;SDS011;26812;42.662;23.352;2023-08-30T11:34:20;3.70;;;3.55;;
41061;SDS011;26812;42.662;23.352;2023-08-30T11:36:49;4.93;;;4.82;;
41061;SDS011;26812;42.662;23.352;2023-08-30T11:39:15;1107.85;;;291.65;;
41061;SDS011;26812;42.662;23.352;2023-08-30T11:41:41;1063.15;;;186.82;;
41061;SDS011;26812;42.662;23.352;2023-08-30T11:44:07;988.58;;;317.67;;
41061;SDS011;26812;42.662;23.352;2023-08-30T11:46:33;800.92;;;151.02;;
41061;SDS011;26812;42.662;23.352;2023-08-30T11:48:58;2.88;;;2.78;;
41061;SDS011;26812;42.662;23.352;2023-08-30T11:51:24;3.25;;;3.15;;
41061;SDS011;26812;42.662;23.352;2023-08-30T11:53:50;648.28;;;107.35;;
41061;SDS011;26812;42.662;23.352;2023-08-30T11:56:15;2.50;;;2.50;;
41061;SDS011;26812;42.662;23.352;2023-08-30T11:58:42;2.92;;;2.78;;
41061;SDS011;26812;42.662;23.352;2023-08-30T12:01:08;4.47;;;3.17;;
41061;SDS011;26812;42.662;23.352;2023-08-30T12:03:34;2.35;;;2.25;;
41061;SDS011;26812;42.662;23.352;2023-08-30T12:06:01;1363.00;;;223.20;;
41061;SDS011;26812;42.662;23.352;2023-08-30T12:08:30;2.25;;;2.15;;
41061;SDS011;26812;42.662;23.352;2023-08-30T12:10:56;1.95;;;1.95;;
41061;SDS011;26812;42.662;23.352;2023-08-30T12:13:23;478.60;;;87.45;;
41061;SDS011;26812;42.662;23.352;2023-08-30T12:15:49;291.48;;;46.35;;
41061;SDS011;26812;42.662;23.352;2023-08-30T12:18:15;2.05;;;2.05;;
41061;SDS011;26812;42.662;23.352;2023-08-30T12:20:50;2.88;;;2.78;;
41061;SDS011;26812;42.662;23.352;2023-08-30T12:23:23;3.20;;;3.10;;
41061;SDS011;26812;42.662;23.352;2023-08-30T12:25:59;3.00;;;2.72;;
41061;SDS011;26812;42.662;23.352;2023-08-30T12:28:29;2.50;;;2.45;;
41061;SDS011;26812;42.662;23.352;2023-08-30T12:30:56;744.33;;;129.40;;
41061;SDS011;26812;42.662;23.352;2023-08-30T12:33:22;3.05;;;2.85;;
41061;SDS011;26812;42.662;23.352;2023-08-30T12:35:48;870.55;;;146.10;;
41061;SDS011;26812;42.662;23.352;2023-08-30T12:38:13;1999.90;;;999.90;;
41061;SDS011;26812;42.662;23.352;2023-08-30T12:40:45;2.90;;;2.80;;
41061;SDS011;26812;42.662;23.352;2023-08-30T12:43:12;476.88;;;75.28;;
41061;SDS011;26812;42.662;23.352;2023-08-30T12:45:41;319.40;;;49.25;;
41061;SDS011;26812;42.662;23.352;2023-08-30T12:48:08;3.10;;;2.53;;
41061;SDS011;26812;42.662;23.352;2023-08-30T12:50:34;3.10;;;2.90;;
41061;SDS011;26812;42.662;23.352;2023-08-30T12:53:03;1531.07;;;753.55;;
41061;SDS011;26812;42.662;23.352;2023-08-30T12:55:29;835.15;;;300.30;;
41061;SDS011;26812;42.662;23.352;2023-08-30T12:57:54;7.13;;;6.93;;
41061;SDS011;26812;42.662;23.352;2023-08-30T13:00:20;34.10;;;33.10;;
41061;SDS011;26812;42.662;23.352;2023-08-30T13:02:46;18.92;;;18.33;;
41061;SDS011;26812;42.662;23.352;2023-08-30T13:05:11;13.93;;;13.52;;
41061;SDS011;26812;42.662;23.352;2023-08-30T13:07:37;5.35;;;5.05;;
41061;SDS011;26812;42.662;23.352;2023-08-30T13:10:02;4.07;;;3.88;;
41061;SDS011;26812;42.662;23.352;2023-08-30T13:12:28;4.80;;;4.60;;
41061;SDS011;26812;42.662;23.352;2023-08-30T13:14:54;1999.90;;;585.28;;
41061;SDS011;26812;42.662;23.352;2023-08-30T13:17:19;3.70;;;2.05;;
41061;SDS011;26812;42.662;23.352;2023-08-30T13:19:44;1999.90;;;999.90;;
41061;SDS011;26812;42.662;23.352;2023-08-30T13:22:10;1999.90;;;999.90;;
41061;SDS011;26812;42.662;23.352;2023-08-30T13:24:35;1999.90;;;999.90;;
41061;SDS011;26812;42.662;23.352;2023-08-30T13:27:01;1999.90;;;999.90;;
41061;SDS011;26812;42.662;23.352;2023-08-30T13:29:27;1999.90;;;999.90;;
41061;SDS011;26812;42.662;23.352;2023-08-30T13:31:53;1999.90;;;999.90;;
41061;SDS011;26812;42.662;23.352;2023-08-30T13:34:18;1999.90;;;999.90;;
41061;SDS011;26812;42.662;23.352;2023-08-30T13:36:44;1999.90;;;999.90;;
41061;SDS011;26812;42.662;23.352;2023-08-30T13:39:09;1999.90;;;999.90;;
41061;SDS011;26812;42.662;23.352;2023-08-30T13:41:35;1999.90;;;999.90;;
41061;SDS011;26812;42.662;23.352;2023-08-30T13:44:01;1999.90;;;999.90;;
41061;SDS011;26812;42.662;23.352;2023-08-30T13:46:28;1999.90;;;999.90;;
41061;SDS011;26812;42.662;23.352;2023-08-30T13:48:54;1999.90;;;999.90;;
41061;SDS011;26812;42.662;23.352;2023-08-30T13:51:21;1999.90;;;999.90;;
41061;SDS011;26812;42.662;23.352;2023-08-30T13:53:47;1999.90;;;999.90;;
41061;SDS011;26812;42.662;23.352;2023-08-30T13:56:13;1999.90;;;999.90;;
41061;SDS011;26812;42.662;23.352;2023-08-30T13:58:38;1999.90;;;999.90;;
41061;SDS011;26812;42.662;23.352;2023-08-30T14:01:04;1999.90;;;999.90;;
41061;SDS011;26812;42.662;23.352;2023-08-30T14:03:29;1999.90;;;999.90;;
41061;SDS011;26812;42.662;23.352;2023-08-30T14:05:55;1999.90;;;999.90;;
41061;SDS011;26812;42.662;23.352;2023-08-30T14:08:20;1999.90;;;999.90;;
41061;SDS011;26812;42.662;23.352;2023-08-30T14:10:54;1999.90;;;999.90;;
41061;SDS011;26812;42.662;23.352;2023-08-30T14:13:19;1999.90;;;999.90;;
41061;SDS011;26812;42.662;23.352;2023-08-30T14:15:45;1999.90;;;999.90;;
41061;SDS011;26812;42.662;23.352;2023-08-30T14:18:10;1999.90;;;999.90;;
41061;SDS011;26812;42.662;23.352;2023-08-30T14:20:36;1999.90;;;999.90;;
41061;SDS011;26812;42.662;23.352;2023-08-30T14:23:02;1999.90;;;999.90;;
41061;SDS011;26812;42.662;23.352;2023-08-30T14:25:28;1999.90;;;999.90;;
41061;SDS011;26812;42.662;23.352;2023-08-30T14:27:54;1999.90;;;999.90;;
41061;SDS011;26812;42.662;23.352;2023-08-30T14:30:20;1999.90;;;999.90;;